createdAt,value
2023-05-01T00:00:55.078Z,61.20
2023-05-01T00:06:02.137Z,61.70
2023-05-01T00:11:06.245Z,61.61
2023-05-01T00:16:10.283Z,61.88
2023-05-01T00:21:13.335Z,62.33
2023-05-01T00:26:16.340Z,62.58
2023-05-01T00:31:20.070Z,63.27
2023-05-01T00:36:23.162Z,63.23
2023-05-01T00:41:26.479Z,62.93
2023-05-01T00:46:30.641Z,62.92
2023-05-01T00:51:34.322Z,63.30
2023-05-01T00:56:37.639Z,63.74
2023-05-01T01:01:44.537Z,64.08
2023-05-01T01:06:53.162Z,63.81
2023-05-01T01:12:28.731Z,65.32
2023-05-01T01:17:46.999Z,67.23
2023-05-01T01:22:53.397Z,66.29
2023-05-01T01:28:05.700Z,66.41
2023-05-01T01:33:25.590Z,65.90
2023-05-01T01:38:48.872Z,65.74
2023-05-01T01:44:10.014Z,63.36
2023-05-01T01:49:21.048Z,64.22
2023-05-01T01:54:29.726Z,64.82
2023-05-01T01:59:34.583Z,65.39
2023-05-01T02:04:39.619Z,66.68
2023-05-01T02:09:44.779Z,67.71
2023-05-01T02:14:48.604Z,67.97
2023-05-01T02:19:53.557Z,67.74
2023-05-01T02:24:57.578Z,68.30
2023-05-01T02:30:00.584Z,68.15
2023-05-01T02:35:04.099Z,68.89
2023-05-01T02:40:07.925Z,70.87
2023-05-01T02:45:18.207Z,70.11
2023-05-01T02:50:22.501Z,69.81
2023-05-01T02:55:26.660Z,69.26
2023-05-01T03:00:30.272Z,68.55
2023-05-01T03:05:33.797Z,67.45
2023-05-01T03:10:36.999Z,67.89
2023-05-01T03:15:40.006Z,67.65
2023-05-01T03:20:51.715Z,68.82
2023-05-01T03:25:55.014Z,71.08
2023-05-01T03:30:58.123Z,70.86
2023-05-01T03:36:05.758Z,70.06
2023-05-01T03:41:09.041Z,67.93
2023-05-01T03:46:12.109Z,68.86
2023-05-01T03:51:17.512Z,70.24
2023-05-01T03:56:20.612Z,68.76
2023-05-01T04:01:23.614Z,72.61
2023-05-01T04:06:27.498Z,70.50
2023-05-01T04:11:30.863Z,63.98
2023-05-01T04:16:34.127Z,60.04
2023-05-01T04:21:37.575Z,56.07
2023-05-01T04:26:40.784Z,50.36
2023-05-01T04:31:43.935Z,46.09
2023-05-01T04:36:47.294Z,42.97
2023-05-01T04:41:50.813Z,44.11
2023-05-01T04:46:54.072Z,38.94
2023-05-01T04:51:57.326Z,37.28
2023-05-01T04:57:01.665Z,35.13
2023-05-01T05:02:05.022Z,32.87
2023-05-01T05:07:09.870Z,32.48
2023-05-01T05:12:14.872Z,31.54
2023-05-01T05:17:18.183Z,30.90
2023-05-01T05:22:21.594Z,31.49
2023-05-01T05:27:24.494Z,29.08
2023-05-01T05:32:27.652Z,28.14
2023-05-01T05:37:30.720Z,26.82
2023-05-01T05:42:34.435Z,27.62
2023-05-01T05:47:37.783Z,25.59
2023-05-01T05:52:41.009Z,24.16
2023-05-01T05:57:44.160Z,24.47
2023-05-01T06:02:47.361Z,23.34
2023-05-01T06:07:51.816Z,22.64
2023-05-01T06:12:59.485Z,21.99
2023-05-01T06:18:17.959Z,21.22
2023-05-01T06:23:23.108Z,22.69
2023-05-01T06:28:26.305Z,22.55
2023-05-01T06:33:29.552Z,20.46
2023-05-01T06:38:35.524Z,21.66
2023-05-01T06:43:38.831Z,20.53
2023-05-01T06:48:41.833Z,21.01
2023-05-01T06:53:45.559Z,19.54
2023-05-01T06:58:48.974Z,19.68
2023-05-01T07:03:52.813Z,18.10
2023-05-01T07:08:56.008Z,18.76
2023-05-01T07:13:59.529Z,19.07
2023-05-01T07:19:02.521Z,18.07
2023-05-01T07:24:06.129Z,18.43
2023-05-01T07:29:09.244Z,16.92
2023-05-01T07:34:12.354Z,17.07
2023-05-01T07:39:15.762Z,17.78
2023-05-01T07:44:19.173Z,17.06
2023-05-01T07:49:22.387Z,16.50
2023-05-01T07:54:25.492Z,17.08
2023-05-01T07:59:29.104Z,17.28
2023-05-01T08:04:32.662Z,17.10
2023-05-01T08:09:36.288Z,17.22
2023-05-01T08:14:39.453Z,17.81
2023-05-01T08:19:42.553Z,17.57
2023-05-01T08:24:46.681Z,17.54
2023-05-01T08:29:50.112Z,17.73
2023-05-01T08:34:54.031Z,17.58
2023-05-01T08:39:58.915Z,17.57
2023-05-01T08:45:05.234Z,17.65
2023-05-01T08:50:14.444Z,17.94
2023-05-01T08:55:19.752Z,17.59
2023-05-01T09:00:23.443Z,17.89
2023-05-01T09:05:27.395Z,18.19
2023-05-01T09:10:32.956Z,18.03
2023-05-01T09:15:36.795Z,18.34
2023-05-01T09:20:41.113Z,20.13
2023-05-01T09:25:46.388Z,19.83
2023-05-01T09:30:50.195Z,19.82
2023-05-01T09:35:54.746Z,21.20
2023-05-01T09:41:04.114Z,21.83
2023-05-01T09:46:09.877Z,21.83
2023-05-01T09:51:23.412Z,21.85
2023-05-01T09:56:27.043Z,21.55
2023-05-01T10:01:40.120Z,21.92
2023-05-01T10:06:43.476Z,24.66
2023-05-01T10:11:49.781Z,25.72
2023-05-01T10:16:53.679Z,26.31
2023-05-01T10:21:56.939Z,27.46
2023-05-01T10:27:01.542Z,28.81
2023-05-01T10:32:05.145Z,29.13
2023-05-01T10:37:28.937Z,29.82
2023-05-01T10:42:32.462Z,30.90
2023-05-01T10:47:38.414Z,29.03
2023-05-01T10:53:02.253Z,30.33
2023-05-01T10:58:05.852Z,31.22
2023-05-01T11:03:23.398Z,31.13
2023-05-01T11:08:33.365Z,29.54
2023-05-01T11:13:55.927Z,30.07
2023-05-01T11:18:59.216Z,30.28
2023-05-01T11:24:06.444Z,30.06
2023-05-01T11:29:10.967Z,30.66
2023-05-01T11:34:14.082Z,31.62
2023-05-01T11:39:18.284Z,31.08
2023-05-01T11:44:22.026Z,31.20
2023-05-01T11:49:29.023Z,31.16
2023-05-01T11:54:47.485Z,31.55
2023-05-01T11:59:50.594Z,30.17
2023-05-01T12:04:54.343Z,30.06
2023-05-01T12:09:57.657Z,29.43
2023-05-01T12:15:00.989Z,29.56
2023-05-01T12:20:05.764Z,29.78
2023-05-01T12:25:09.869Z,29.90
2023-05-01T12:30:13.241Z,29.67
2023-05-01T12:35:16.948Z,29.31
2023-05-01T12:40:20.144Z,28.51
2023-05-01T12:45:23.657Z,28.84
2023-05-01T12:50:26.969Z,29.36
2023-05-01T12:55:30.488Z,29.22
2023-05-01T13:00:42.197Z,28.93
2023-05-01T13:05:58.593Z,29.00
2023-05-01T13:11:04.172Z,29.25
2023-05-01T13:16:14.223Z,29.37
2023-05-01T13:21:19.701Z,29.43
2023-05-01T13:26:33.773Z,30.00
2023-05-01T13:31:37.030Z,29.95
2023-05-01T13:36:40.591Z,29.56
2023-05-01T13:41:43.588Z,29.83
2023-05-01T13:46:47.415Z,30.14
2023-05-01T13:51:51.356Z,30.70
2023-05-01T13:56:54.848Z,31.22
2023-05-01T14:01:57.791Z,31.61
2023-05-01T14:07:01.686Z,31.02
2023-05-01T14:12:05.095Z,31.21
2023-05-01T14:17:08.341Z,31.82
2023-05-01T14:22:12.229Z,31.49
2023-05-01T14:27:15.500Z,31.67
2023-05-01T14:32:18.634Z,31.83
2023-05-01T14:37:23.082Z,31.38
2023-05-01T14:42:26.591Z,31.54
2023-05-01T14:47:29.631Z,31.89
2023-05-01T14:52:33.014Z,31.38
2023-05-01T14:57:36.437Z,31.25
2023-05-01T15:02:39.657Z,31.43
2023-05-01T15:07:42.947Z,31.29
2023-05-01T15:12:46.727Z,31.43
2023-05-01T15:17:50.588Z,31.11
2023-05-01T15:22:54.209Z,31.13
2023-05-01T15:27:57.830Z,30.76
2023-05-01T15:33:01.862Z,30.78
2023-05-01T15:38:05.633Z,30.38
2023-05-01T15:43:08.789Z,30.62
2023-05-01T15:48:12.414Z,31.13
2023-05-01T15:53:17.353Z,31.07
2023-05-01T15:58:23.216Z,31.25
2023-05-01T16:03:27.585Z,30.96
2023-05-01T16:08:32.495Z,31.41
2023-05-01T16:13:42.165Z,31.30
2023-05-01T16:18:45.809Z,31.37
2023-05-01T16:23:49.284Z,31.34
2023-05-01T16:28:53.532Z,31.06
2023-05-01T16:33:57.066Z,30.92
2023-05-01T16:39:01.479Z,31.44
2023-05-01T16:44:04.987Z,31.87
2023-05-01T16:49:10.653Z,31.80
2023-05-01T16:54:13.767Z,31.91
2023-05-01T16:59:17.288Z,31.91
2023-05-01T17:04:20.658Z,32.13
2023-05-01T17:09:24.403Z,32.94
2023-05-01T17:14:29.143Z,33.46
2023-05-01T17:19:32.918Z,34.03
2023-05-01T17:24:36.908Z,34.12
2023-05-01T17:29:41.847Z,34.78
2023-05-01T17:34:45.489Z,35.03
2023-05-01T17:39:49.511Z,35.29
2023-05-01T17:44:53.319Z,35.83
2023-05-01T17:49:56.561Z,36.97
2023-05-01T17:55:00.665Z,37.37
2023-05-01T18:00:05.609Z,37.56
2023-05-01T18:05:11.934Z,38.33
2023-05-01T18:10:16.389Z,39.57
2023-05-01T18:15:22.745Z,39.11
2023-05-01T18:20:26.530Z,39.15
2023-05-01T18:25:29.935Z,40.24
2023-05-01T18:30:33.353Z,41.22
2023-05-01T18:35:40.081Z,41.75
2023-05-01T18:40:43.903Z,42.10
2023-05-01T18:45:47.079Z,42.47
2023-05-01T18:51:06.795Z,42.37
2023-05-01T18:56:11.507Z,42.90
2023-05-01T19:01:24.071Z,42.77
2023-05-01T19:06:38.038Z,42.50
2023-05-01T19:11:42.523Z,43.50
2023-05-01T19:16:46.109Z,43.66
2023-05-01T19:21:51.609Z,43.98
2023-05-01T19:26:56.851Z,45.25
2023-05-01T19:32:02.284Z,46.38
2023-05-01T19:37:07.991Z,47.23
2023-05-01T19:42:13.612Z,48.15
2023-05-01T19:47:20.453Z,49.21
2023-05-01T19:52:34.140Z,48.21
2023-05-01T19:57:38.335Z,48.63
2023-05-01T20:02:42.666Z,48.10
2023-05-01T20:07:48.849Z,48.37
2023-05-01T20:12:53.177Z,49.79
2023-05-01T20:17:56.618Z,49.55
2023-05-01T20:23:14.042Z,51.10
2023-05-01T20:28:18.172Z,51.48
2023-05-01T20:33:21.296Z,50.93
2023-05-01T20:38:24.696Z,49.65
2023-05-01T20:43:28.309Z,50.96
2023-05-01T20:48:33.109Z,52.34
2023-05-01T20:53:36.766Z,52.70
2023-05-01T20:58:39.973Z,52.66
2023-05-01T21:03:42.996Z,52.80
2023-05-01T21:08:46.697Z,52.19
2023-05-01T21:13:51.847Z,52.71
2023-05-01T21:18:55.158Z,52.70
2023-05-01T21:23:58.265Z,52.87
2023-05-01T21:29:01.884Z,52.94
2023-05-01T21:34:05.198Z,53.03
2023-05-01T21:39:08.610Z,53.11
2023-05-01T21:44:11.817Z,53.26
2023-05-01T21:49:18.764Z,53.47
2023-05-01T21:54:21.845Z,53.64
2023-05-01T21:59:26.353Z,53.61
2023-05-01T22:04:29.459Z,53.79
2023-05-01T22:09:33.218Z,53.78
2023-05-01T22:14:47.135Z,53.73
2023-05-01T22:19:51.894Z,53.75
2023-05-01T22:24:54.892Z,53.95
2023-05-01T22:29:58.574Z,54.33
2023-05-01T22:35:01.818Z,53.83
2023-05-01T22:40:06.077Z,54.10
2023-05-01T22:45:10.529Z,53.68
2023-05-01T22:50:13.605Z,54.22
2023-05-01T22:55:16.807Z,54.36
2023-05-01T23:00:20.010Z,54.30
2023-05-01T23:05:23.014Z,54.32
2023-05-01T23:10:27.038Z,52.96
2023-05-01T23:15:30.051Z,52.57
2023-05-01T23:20:40.112Z,51.86
2023-05-01T23:25:49.070Z,51.43
2023-05-01T23:31:00.185Z,50.94
2023-05-01T23:36:03.358Z,51.41
2023-05-01T23:41:07.363Z,51.88
2023-05-01T23:46:10.512Z,51.30
2023-05-01T23:51:13.801Z,51.62
2023-05-01T23:56:17.008Z,51.94
